Řízení letového provozu České republiky  
Aktualizace dat:  26.09.2022 15:06:33 UTC English version
   METEO Zobrazení stránky:  26.09.2022 15:07:43 UTC  
vysvětlivky
METAR EDAC 261450Z AUTO 21008KT 9999 // FEW060/// BKN075/// 14/07 Q1003=
METAR EDDB 261450Z AUTO 19011KT CAVOK 16/07 Q1001 NOSIG=
METAR EDDC 261450Z AUTO 23007KT 200V260 CAVOK 15/05 Q1003 NOSIG=
METAR EDDE 261450Z AUTO 22013KT 190V250 CAVOK 14/05 Q1002 TEMPO 22015G25KT=
METAR EDDF 261450Z AUTO 18007KT CAVOK 14/09 Q1002 NOSIG=
METAR EDDM 261450Z AUTO 24009KT 210V270 9999 FEW033 15/08 Q1006 NOSIG=
METAR EDDN 261450Z AUTO 22009KT 190V250 CAVOK 15/05 Q1004 NOSIG=
METAR EDDP 261450Z AUTO 20015KT 9999 FEW045 16/07 Q1002 TEMPO 23015G25KT=
METAR EDQM 261450Z 20011KT 160V230 9999 FEW031 11/06 Q1004=
METAR EPBY 261500Z 30005KT 9999 FEW020CB 15/08 Q1003=
METAR EPGD 261500Z 23005KT 9999 FEW049 14/05 Q1003=
METAR EPKK 261500Z VRB02KT 9999 FEW020 SCT059 16/11 Q1005=
METAR EPKT 261500Z 29009KT 9999 BKN020CB BKN026 13/09 Q1005=
METAR EPLB 261500Z 15003KT 120V180 9999 FEW020 16/13 Q1006=
METAR EPLL 261500Z 15003KT 090V210 9999 TS BKN038CB 14/10 Q1004=
METAR EPMO 261500Z 12005KT 9999 SCT045 18/09 Q1004=
METAR EPPO 261500Z 20006KT CAVOK 14/08 Q1004=
METAR EPRZ 261500Z 11003KT 040V160 8000 -RA BKN005 OVC020 13/12 Q1006 =
METAR EPWA 261500Z 12007KT 9999 -SHRA SCT042CB 17/09 Q1004 TEMPO 4000 SHRA=
METAR EPWR 261500Z 29004KT 9999 FEW013 SCT017 BKN019 14/11 Q1005=
METAR LHBP 261500Z 33005KT 9999 FEW030 BKN230 18/12 Q1006 NOSIG=
METAR LHSM 261445Z AUTO VRB01KT CAVOK 19/12 Q1007 NOSIG=
METAR LKBC NIL
METAR LKCS 261500Z AUTO 20006KT 170V230 9999 FEW100/// 15/09 Q1005=
METAR LKCV 261500Z VRB02KT 9999 FEW033 16/09 Q1005 NOSIG RMK BLU BLU=
METAR LKKB 261500Z 22009KT 9999 SCT043 16/07 Q1004 NOSIG RMK BLU BLU=
METAR LKKU 261500Z 20005KT 150V240 9999 FEW038 17/10 Q1005=
METAR LKKV 261500Z 21004KT 140V270 CAVOK 12/04 Q1004=
METAR LKLN 261500Z AUTO 22008KT 190V250 9999 BKN051 15/06 Q1005=
METAR LKMT 261500Z 23011KT 9999 FEW026 16/10 Q1005 NOSIG=
METAR LKNA 261500Z 26006KT 9999 FEW042 16/07 Q1006 NOSIG RMK BLU BLU=
METAR LKPD 261500Z 26006KT 9999 SCT027 16/09 Q1005 NOSIG RMK BLU BLU=
METAR LKPJ 261500Z AUTO 01007KT 9999 FEW036/// 15/10 Q1006=
METAR LKPR 261500Z 23008KT 9999 FEW045 15/07 Q1005 NOSIG=
METAR LKTB 261500Z VRB02KT 9999 FEW040 17/08 Q1005 NOSIG=
METAR LKVO NIL
METAR LOWG 261450Z 29003KT 240V340 9999 SHRA FEW010 SCT025 BKN035 14/12 Q1007 TEMPO -SHRA=
METAR LOWI 261450Z 09012KT 050V120 9999 FEW050 SCT070 15/08 Q1005 NOSIG=
METAR LOWK 261450Z VRB01KT 9999 -SHRA FEW009 SCT045 FEW050CB BKN080 13/12 Q1007 TEMPO SHRA=
METAR LOWL 261450Z AUTO 33006KT 9999 FEW038 BKN070 16/09 Q1006 NOSIG=
METAR LOWS 261450Z 30009KT 9999 -SHRA FEW025 SCT040 BKN055 14/09 Q1006 NOSIG=
METAR LOWW 261450Z 29006KT 270V330 9999 FEW035 19/08 Q1006 NOSIG=
METAR LOXZ 261450Z 07004KT 040V100 9999 FEW018 SCT035 BKN060 13/10 Q1007 TEMPO -SHRA=
METAR LZIB 261500Z 27004KT 240V320 9999 SCT041 19/10 Q1006 NOSIG=
METAR LZKZ 261500Z 21003KT 9999 FEW009 SCT014 BKN025 13/12 Q1006 NOSIG=
METAR LZPP 261500Z 26004KT 210V290 9999 FEW040 18/11 Q1005=
METAR LZTT 261500Z 23007KT 170V250 9999 FEW010 SCT020 13/08 Q1006 NOSIG=
METAR LZZI 261500Z VRB02KT 9999 FEW022 17/12 Q1005=